Fish Lake Valley, Nevada Weather observations

Data are for 10 minute period ending at time listed.
 Day   Time    Ave.   Ave.  Ave.  Vector   Max.   Stn.    Total    Solar   Ave.  
  of    of     Air    Rel.  Wind   Wind    Wind   Baro.  Precip.   Rad.    Soil  
Year   Day     Temp.  Hum.  Speed  Dir.    Gust   Pres.                    Temp. 
2017   (PST)    F      %     mph   deg.    mph     mb.     in.     W/m2     F    
--------------------------------------------------------------------------------- 
 178   20:50   72.3    12    7.3   238     10.7   848.7    0.00       3    77.9  
 178   21:00   71.1    13    6.9   238      8.2   848.9    0.00       3    78.0  
 178   21:10   74.3    10    8.1   251     15.3   849.0    0.00       3    78.0  
 178   21:20   75.9    12    6.4   313      9.8   849.2    0.00       3    78.1  
 178   21:30   74.6    13    5.5   313      9.0   849.3    0.00       3    78.1  
 178   21:40   75.2    12    9.1   293     15.5   849.3    0.00       3    78.1  
 178   21:50   76.7    12   10.9   291     14.8   849.4    0.00       3    78.2  
 178   22:00   77.7    13   11.9   297     18.5   849.5    0.00       3    78.2  
 178   22:10   77.6    13   11.6   303     15.8   849.6    0.00       3    78.2  
 178   22:20   76.8    13   12.8   288     17.4   849.7    0.00       3    78.3  
 178   22:30   75.5    13   11.6   283     17.7   849.7    0.00       2    78.3  
 178   22:40   74.7    12   12.3   288     18.1   849.7    0.00       2    78.3  
 178   22:50   74.6    12   13.0   288     18.1   849.8    0.00       2    78.3  
 178   23:00   74.2    12   11.1   283     15.2   849.9    0.00       2    78.4  
 178   23:10   74.3    12   11.1   281     15.2   849.9    0.00       3    78.4  
 178   23:20   74.4    12   11.8   281     16.4   849.7    0.00       2    78.4  
 178   23:30   75.0    12   11.5   280     16.6   849.7    0.00       2    78.4  
 178   23:40   74.5    13    9.7   294     15.7   849.8    0.00       2    78.4  
 178   23:50   73.0    13    6.2   296     10.3   849.8    0.00       2    78.4  
 179    0:00   69.4    19    8.5   323     11.3   849.9    0.00       2    78.5  
 179    0:10   72.1    15    8.4   315     15.6   849.8    0.00       2    78.5  
 179    0:20   67.7    22    3.9   338      6.7   849.8    0.00       2    78.5  
 179    0:30   65.0    26    2.1    32      4.8   849.8    0.00       2    78.5  
 179    0:40   65.1    22    4.1   308      7.3   849.9    0.00       2    78.5  
 179    0:50   64.1    27    2.8    55      5.7   850.0    0.00       2    78.5  
 179    1:00   67.4    19    6.2   358     12.7   850.0    0.00       2    78.5  
 179    1:10   66.3    23    5.3    27      7.2   849.9    0.00       2    78.5  
 179    1:20   66.1    22    5.6    26      8.3   849.7    0.00       2    78.5  
 179    1:30   64.7    26    4.8    22      9.5   849.8    0.00       2    78.5  
 179    1:40   64.9    25    4.5     6      6.7   849.9    0.00       2    78.4  
 179    1:50   64.6    24    2.7   353      3.8   850.0    0.00       2    78.4  
 179    2:00   64.3    23    2.5    28      4.1   850.0    0.00       2    78.4  
 179    2:10   64.5    22    3.6    18      5.2   849.9    0.00       2    78.4  
 179    2:20   65.1    22    6.7   359     13.9   849.9    0.00       2    78.4  
 179    2:30   63.9    25    7.1    11     10.6   850.0    0.00       2    78.4  
 179    2:40   62.9    27    5.4     9      7.4   850.0    0.00       2    78.4  
 179    2:50   62.0    29    3.1     3      6.6   850.1    0.00       2    78.3  
 179    3:00   61.6    30    5.8    12     11.4   850.2    0.00       2    78.3  
 179    3:10   60.9    31    7.2     7     11.1   850.2    0.00       2    78.3  
 179    3:20   63.5    26    8.7    23     12.8   850.3    0.00       2    78.3  
 179    3:30   63.2    27    9.4    29     12.8   850.5    0.00       2    78.3  
 179    3:40   62.1    28   10.0    28     15.7   850.6    0.00       2    78.2  
 179    3:50   61.7    28    7.4    19     14.9   850.7    0.00       2    78.2  
 179    4:00   61.2    29    5.0     2     11.7   850.8    0.00       2    78.2  
 179    4:10   61.6    27    8.4     2     11.6   850.9    0.00       2    78.2  
 179    4:20   60.7    26    8.1   358     11.9   851.0    0.00       3    78.2  
 179    4:30   60.2    27    7.2   356      9.5   851.1    0.00       5    78.1  
 179    4:40   59.6    28    6.9   353     10.4   851.2    0.00       8    78.1  
 179    4:50   58.5    29    6.6   352     10.4   851.4    0.00      11    78.1  
 179    5:00   57.5    30    5.9    13     10.6   851.4    0.00      15    78.0  
 179    5:10   58.0    29    5.1    23      7.1   851.6    0.00      21    78.0  
 179    5:20   58.6    27    4.1   358      6.3   851.5    0.00      96    78.0  
 179    5:30   58.8    31    4.6     9      5.7   851.5    0.00     148    77.9  
 179    5:40   58.0    35    5.1    22      6.3   851.6    0.00     184    77.9  
 179    5:50   59.0    31    6.7     9      8.2   851.6    0.00     218    77.9  
 179    6:00   61.4    28    7.7     0     10.8   851.7    0.00     252    77.8  
 179    6:10   62.0    29    8.6   358     10.7   851.8    0.00     286    77.8  
 179    6:20   62.9    28    7.2   358      8.7   851.8    0.00     320    77.8  
 179    6:30   64.4    27    6.4   352      8.2   851.8    0.00     354    77.7  
 179    6:40   67.0    24    7.1   329     13.0   851.8    0.00     384    77.7  
 179    6:50   69.9    19   10.9   297     15.0   851.8    0.00     413    77.7  
 179    7:00   71.2    19   11.8   296     15.0   851.8    0.00     447    77.6  
 179    7:10   72.3    19   12.6   302     16.4   851.8    0.00     481    77.6  
 179    7:20   73.2    19   13.6   303     18.0   851.8    0.00     516    77.5  
 179    7:30   74.0    18   14.1   298     19.6   851.7    0.00     549    77.5  
 179    7:40   75.0    18   13.9   304     18.1   851.8    0.00     582    77.5  
 179    7:50   75.5    16   15.0   308     20.9   851.8    0.00     616    77.4  
 179    8:00   76.1    16   15.6   311     20.6   851.8    0.00     649    77.4  
 179    8:10   76.1    18   14.7   322     18.2   851.8    0.00     683    77.3  
 179    8:20   76.7    17   14.6   324     19.3   851.7    0.00     716    77.3  
 179    8:30   76.8    15   15.1   322     19.7   851.7    0.00     747    77.3  
 179    8:40   77.2    16   12.8   321     17.7   851.8    0.00     777    77.2  
 179    8:50   77.7    14   13.1   312     18.3   851.7    0.00     806    77.2  
 179    9:00   78.1    14   13.8   319     21.7   851.7    0.00     831    77.1  
 179    9:10   78.5    13   13.4   312     18.2   851.7    0.00     857    77.1  
 179    9:20   78.9    13   14.1   316     19.0   851.7    0.00     884    77.1  
 179    9:30   78.9    13   13.2   315     18.9   851.6    0.00     907    77.0  
 179    9:40   78.8    14   13.4   323     19.7   851.6    0.00     930    77.0  
 179    9:50   79.7    12   13.6   305     20.4   851.6    0.00     950    76.9  
 179   10:00   80.5    12   12.7   303     17.6   851.6    0.00     969    76.9  
 179   10:10   80.7    14   12.4   310     20.1   851.5    0.00     987    76.9  
 179   10:20   80.4    14   11.8   306     17.7   851.5    0.00    1004    76.8  
 179   10:30   80.5    16   12.2   315     16.5   851.4    0.00    1019    76.8  
 179   10:40   81.0    13   10.9   296     17.8   851.3    0.00    1032    76.8  
 179   10:50   81.5    14   10.5   305     18.2   851.3    0.00    1043    76.7  
 179   11:00   81.5    14   10.1   312     17.6   851.3    0.00    1053    76.7  
 179   11:10   83.2    11    7.7   267     15.1   851.2    0.00    1058    76.7  
 179   11:20   84.1    11    8.3   280     14.9   851.1    0.00    1066    76.6  
 179   11:30   84.1    11    8.7   278     14.3   851.1    0.00    1071    76.6  
 179   11:40   84.3    11    9.4   272     16.8   851.0    0.00    1076    76.6  
 179   11:50   84.9    11    8.3   265     14.1   850.9    0.00    1077    76.6  
 179   12:00   85.1    11    6.9   295     17.5   850.9    0.00    1079    76.5  
 179   12:10   86.5    10    5.2   302     14.7   850.8    0.00    1078    76.5  
 179   12:20   87.0    10    8.6   302     16.3   850.7    0.00    1073    76.5  
 179   12:30   86.4    10    6.4   278     13.3   850.6    0.00    1068    76.5  
 179   12:40   87.3     8    5.9   277     12.3   850.4    0.00    1062    76.5  
 179   12:50   87.5    10    8.7   317     16.0   850.3    0.00    1055    76.5  
 179   13:00   88.0     8    6.1   264     12.2   850.3    0.00    1047    76.5  
 179   13:10   88.6    11    6.6   320     12.2   850.2    0.00    1036    76.5  
 179   13:20   88.0    12    8.8   337     17.9   850.0    0.00    1022    76.4  
 179   13:30   87.1    12   11.7   337     20.2   849.9    0.00    1011    76.4  
 179   13:40   88.2    11    9.3   307     14.7   849.8    0.00     994    76.4  
 179   13:50   88.7    10    9.6   311     14.6   849.7    0.00     978    76.4  
 179   14:00   88.9    10    6.6   321     14.7   849.6    0.00     958    76.5  
 179   14:10   89.0    12   10.4   322     17.1   849.5    0.00     939    76.5  
 179   14:20   89.8    10   11.2   302     19.7   849.3    0.00     917    76.5  
 179   14:30   87.8    14   11.8   341     17.1   849.3    0.00     895    76.5  
 179   14:40   87.5    14   11.9   331     15.8   849.2    0.00     873    76.5  
 179   14:50   88.4    13    9.4   326     15.8   849.0    0.00     846    76.5  
 179   15:00   89.0    12    7.7   342     12.8   849.0    0.00     820    76.5  
 179   15:10   89.8    10    5.3   350     13.7   848.8    0.00     793    76.6  
 179   15:20   89.2    12    9.5   328     15.9   848.8    0.00     765    76.6  
 179   15:30   88.5    13   11.1   322     18.3   848.8    0.00     736    76.6  
 179   15:40   90.1    10    8.7   316     17.3   848.7    0.00     705    76.6  
 179   15:50   88.4    12   10.6   328     17.2   848.7    0.00     674    76.7  
 179   16:00   88.6    12   10.0   333     14.8   848.7    0.00     642    76.7  
 179   16:10   90.5     8    8.5   300     17.5   848.5    0.00     610    76.7  
 179   16:20   89.6    12   10.5   318     15.1   848.5    0.00     577    76.8  
 179   16:30   88.4    12   11.4   317     16.7   848.5    0.00     544    76.8  
 179   16:40   89.1     9   12.4   312     17.7   848.5    0.00     510    76.8  
 179   16:50   89.0     9    9.6   313     12.5   848.5    0.00     476    76.9  
 179   17:00   88.8    11    8.4   321     13.9   848.5    0.00     442    76.9  
 179   17:10   87.8    12   11.6   320     15.2   848.5    0.00     408    77.0  
 179   17:20   87.8    10   11.6   314     15.2   848.6    0.00     374    77.0  
 179   17:30   88.9     9    9.5   311     13.4   848.6    0.00     341    77.1  
 179   17:40   88.2    10    9.1   314     15.5   848.6    0.00     307    77.1  
 179   17:50   88.8     8   10.7   301     14.7   848.6    0.00     275    77.2  
 179   18:00   88.6     8   11.4   304     16.2   848.6    0.00     242    77.2  
 179   18:10   86.6    11   10.9   320     14.9   848.6    0.00     210    77.3  
 179   18:20   84.9    12   10.7   316     15.1   848.7    0.00     180    77.3  
 179   18:30   84.4    12    9.7   317     12.8   848.8    0.00     150    77.4  
 179   18:40   82.0    15    9.9   323     12.4   848.8    0.00     117    77.5  
 179   18:50   82.5    13   10.6   317     13.3   848.9    0.00      76    77.5  
 179   19:00   78.8    17   11.0   329     14.6   848.9    0.00      15    77.6  
 179   19:10   78.2    16   10.3   326     13.9   849.0    0.00      11    77.6  
 179   19:20   76.9    17    9.8   321     11.4   849.1    0.00       8    77.7  
 179   19:30   77.1    15    8.3   313     10.2   849.2    0.00       5    77.7  
 179   19:40   78.6    11    7.6   288     10.6   849.4    0.00       3    77.8  
 179   19:50   79.0    10    8.6   282     11.7   849.5    0.00       3    77.8  
 179   20:00   78.7    10    7.9   277     12.0   849.6    0.00       3    77.9  
 179   20:10   78.6    10    7.9   284     12.8   849.8    0.00       3    77.9  
 179   20:20   78.8    10    6.6   289     10.9   850.0    0.00       3    78.0  
 179   20:30   78.5    10    7.0   296     11.7   850.2    0.00       3    78.0  
 179   20:40   78.4    10    7.7   283     10.4   850.4    0.00       2    78.1  

Return to Fish Lake Valley, Nevada graphs page.


Western Regional Climate Center,wrcc@dri.edu